Terminal Aerodrome Forecast
Issued by NWS

Home | Current Version | Previous Version | Text Only | Print | Product List | Glossary On
Versions: 1 2 3 4 5 6 7 8 9 10 11 12 13 14 15 16 17 18
000
FTUS44 KLZK 261100 RRA
TAFPBF
TAF
KPBF 261140Z 2612/2712 23007KT P6SM SCT007 BKN015
      TEMPO 2612/2615 OVC007
     FM261500 21010KT P6SM BKN025
     FM261800 20012KT P6SM BKN050
     FM270000 17004KT P6SM BKN250=

USA.gov is the U.S. government's official web portal to all federal, state and local government web resources and services.